sensor_id;sensor_type;location;lat;lon;timestamp;temperature;humidity
5901;DHT22;2976;49.764;9.796;2022-09-03T00:01:22;14.70;1.00
5901;DHT22;2976;49.764;9.796;2022-09-03T00:03:56;14.70;1.00
5901;DHT22;2976;49.764;9.796;2022-09-03T00:06:33;14.60;1.00
5901;DHT22;2976;49.764;9.796;2022-09-03T00:09:13;14.60;1.00
5901;DHT22;2976;49.764;9.796;2022-09-03T00:12:08;14.50;1.00
5901;DHT22;2976;49.764;9.796;2022-09-03T00:17:14;14.30;1.00
5901;DHT22;2976;49.764;9.796;2022-09-03T00:19:45;14.20;39.80
5901;DHT22;2976;49.764;9.796;2022-09-03T00:22:23;14.10;67.40
5901;DHT22;2976;49.764;9.796;2022-09-03T00:24:51;14.10;99.90
5901;DHT22;2976;49.764;9.796;2022-09-03T00:27:21;14.00;99.90
5901;DHT22;2976;49.764;9.796;2022-09-03T00:30:00;14.00;99.90
5901;DHT22;2976;49.764;9.796;2022-09-03T00:33:04;14.00;99.90
5901;DHT22;2976;49.764;9.796;2022-09-03T00:35:42;14.00;99.90
5901;DHT22;2976;49.764;9.796;2022-09-03T00:38:09;13.90;99.90
5901;DHT22;2976;49.764;9.796;2022-09-03T00:46:41;13.90;1.00
5901;DHT22;2976;49.764;9.796;2022-09-03T00:49:38;13.80;1.00
5901;DHT22;2976;49.764;9.796;2022-09-03T00:52:23;13.80;1.00
5901;DHT22;2976;49.764;9.796;2022-09-03T01:00:31;13.70;99.90
5901;DHT22;2976;49.764;9.796;2022-09-03T01:06:04;13.60;99.90
5901;DHT22;2976;49.764;9.796;2022-09-03T01:08:36;13.50;1.00
5901;DHT22;2976;49.764;9.796;2022-09-03T01:11:16;13.50;1.00
5901;DHT22;2976;49.764;9.796;2022-09-03T01:22:37;13.30;1.00
5901;DHT22;2976;49.764;9.796;2022-09-03T01:30:23;13.40;99.90
5901;DHT22;2976;49.764;9.796;2022-09-03T01:35:47;13.30;1.00
5901;DHT22;2976;49.764;9.796;2022-09-03T01:38:19;13.20;1.00
5901;DHT22;2976;49.764;9.796;2022-09-03T01:43:57;13.30;1.00
5901;DHT22;2976;49.764;9.796;2022-09-03T01:46:41;13.20;99.90
5901;DHT22;2976;49.764;9.796;2022-09-03T01:49:30;13.20;99.90
5901;DHT22;2976;49.764;9.796;2022-09-03T01:52:14;13.20;99.90
5901;DHT22;2976;49.764;9.796;2022-09-03T01:54:59;13.10;1.00
5901;DHT22;2976;49.764;9.796;2022-09-03T01:57:53;13.10;1.00
5901;DHT22;2976;49.764;9.796;2022-09-03T02:00:23;13.10;19.40
5901;DHT22;2976;49.764;9.796;2022-09-03T02:02:51;13.00;99.90
5901;DHT22;2976;49.764;9.796;2022-09-03T02:05:20;13.00;1.00
5901;DHT22;2976;49.764;9.796;2022-09-03T02:07:55;12.90;1.00
5901;DHT22;2976;49.764;9.796;2022-09-03T02:10:33;12.90;99.90
5901;DHT22;2976;49.764;9.796;2022-09-03T02:15:45;12.80;1.00
5901;DHT22;2976;49.764;9.796;2022-09-03T02:18:21;12.80;99.90
5901;DHT22;2976;49.764;9.796;2022-09-03T02:20:49;12.80;99.90
5901;DHT22;2976;49.764;9.796;2022-09-03T02:23:16;12.70;99.90
5901;DHT22;2976;49.764;9.796;2022-09-03T02:25:49;12.70;1.00
5901;DHT22;2976;49.764;9.796;2022-09-03T02:28:16;12.70;1.00
5901;DHT22;2976;49.764;9.796;2022-09-03T02:30:42;12.70;1.00
5901;DHT22;2976;49.764;9.796;2022-09-03T02:33:08;12.70;99.90
5901;DHT22;2976;49.764;9.796;2022-09-03T02:35:34;12.70;1.00
5901;DHT22;2976;49.764;9.796;2022-09-03T02:38:11;12.60;1.00
5901;DHT22;2976;49.764;9.796;2022-09-03T02:40:37;12.40;72.40
5901;DHT22;2976;49.764;9.796;2022-09-03T02:43:04;12.30;99.90
5901;DHT22;2976;49.764;9.796;2022-09-03T02:45:34;12.30;1.00
5901;DHT22;2976;49.764;9.796;2022-09-03T02:48:03;12.30;99.90
5901;DHT22;2976;49.764;9.796;2022-09-03T02:50:28;12.30;94.40
5901;DHT22;2976;49.764;9.796;2022-09-03T02:52:54;12.30;99.90
5901;DHT22;2976;49.764;9.796;2022-09-03T02:55:20;12.30;99.90
5901;DHT22;2976;49.764;9.796;2022-09-03T02:57:45;12.30;99.90
5901;DHT22;2976;49.764;9.796;2022-09-03T03:00:12;12.30;99.90
5901;DHT22;2976;49.764;9.796;2022-09-03T03:02:38;12.20;99.90
5901;DHT22;2976;49.764;9.796;2022-09-03T03:05:04;12.20;99.90
5901;DHT22;2976;49.764;9.796;2022-09-03T03:07:37;12.10;1.00
5901;DHT22;2976;49.764;9.796;2022-09-03T03:10:03;12.20;1.00
5901;DHT22;2976;49.764;9.796;2022-09-03T03:12:29;12.10;1.00
5901;DHT22;2976;49.764;9.796;2022-09-03T03:14:55;12.20;1.00
5901;DHT22;2976;49.764;9.796;2022-09-03T03:17:20;12.20;1.00
5901;DHT22;2976;49.764;9.796;2022-09-03T03:19:46;12.30;1.00
5901;DHT22;2976;49.764;9.796;2022-09-03T03:22:11;12.30;1.00
5901;DHT22;2976;49.764;9.796;2022-09-03T03:24:37;12.30;1.00
5901;DHT22;2976;49.764;9.796;2022-09-03T03:27:03;12.30;99.90
5901;DHT22;2976;49.764;9.796;2022-09-03T03:29:30;12.40;99.90
5901;DHT22;2976;49.764;9.796;2022-09-03T03:31:56;12.40;1.00
5901;DHT22;2976;49.764;9.796;2022-09-03T03:34:22;12.50;99.90
5901;DHT22;2976;49.764;9.796;2022-09-03T03:36:47;12.50;99.90
5901;DHT22;2976;49.764;9.796;2022-09-03T03:39:13;12.60;1.00
5901;DHT22;2976;49.764;9.796;2022-09-03T03:41:38;12.60;1.00
5901;DHT22;2976;49.764;9.796;2022-09-03T03:44:06;12.60;1.00
5901;DHT22;2976;49.764;9.796;2022-09-03T03:46:34;12.70;99.90
5901;DHT22;2976;49.764;9.796;2022-09-03T03:49:00;12.80;97.00
5901;DHT22;2976;49.764;9.796;2022-09-03T03:51:26;12.90;1.00
5901;DHT22;2976;49.764;9.796;2022-09-03T03:53:56;12.90;99.90
5901;DHT22;2976;49.764;9.796;2022-09-03T03:56:22;12.90;99.90
5901;DHT22;2976;49.764;9.796;2022-09-03T03:58:48;13.00;1.00
5901;DHT22;2976;49.764;9.796;2022-09-03T04:01:17;13.00;99.90
5901;DHT22;2976;49.764;9.796;2022-09-03T04:03:43;13.00;99.90
5901;DHT22;2976;49.764;9.796;2022-09-03T04:06:10;13.10;1.00
5901;DHT22;2976;49.764;9.796;2022-09-03T04:08:38;13.20;1.00
5901;DHT22;2976;49.764;9.796;2022-09-03T04:11:06;13.20;99.90
5901;DHT22;2976;49.764;9.796;2022-09-03T04:13:37;13.20;1.00
5901;DHT22;2976;49.764;9.796;2022-09-03T04:16:05;13.20;1.00
5901;DHT22;2976;49.764;9.796;2022-09-03T04:18:31;13.30;1.00
5901;DHT22;2976;49.764;9.796;2022-09-03T04:21:08;13.40;99.90
5901;DHT22;2976;49.764;9.796;2022-09-03T04:23:36;13.30;99.90
5901;DHT22;2976;49.764;9.796;2022-09-03T04:26:02;13.40;1.00
5901;DHT22;2976;49.764;9.796;2022-09-03T04:28:27;13.40;1.00
5901;DHT22;2976;49.764;9.796;2022-09-03T04:30:53;13.40;1.00
5901;DHT22;2976;49.764;9.796;2022-09-03T04:33:19;13.40;1.00
5901;DHT22;2976;49.764;9.796;2022-09-03T04:35:45;13.40;1.00
5901;DHT22;2976;49.764;9.796;2022-09-03T04:38:11;13.50;1.00
5901;DHT22;2976;49.764;9.796;2022-09-03T04:40:36;13.40;1.00
5901;DHT22;2976;49.764;9.796;2022-09-03T04:43:02;13.40;99.90
5901;DHT22;2976;49.764;9.796;2022-09-03T04:45:28;13.50;99.90
5901;DHT22;2976;49.764;9.796;2022-09-03T04:47:58;13.50;99.90
5901;DHT22;2976;49.764;9.796;2022-09-03T04:50:24;13.50;99.90
5901;DHT22;2976;49.764;9.796;2022-09-03T04:52:52;13.50;99.90
5901;DHT22;2976;49.764;9.796;2022-09-03T04:55:22;13.50;42.60
5901;DHT22;2976;49.764;9.796;2022-09-03T04:57:48;13.60;1.00
5901;DHT22;2976;49.764;9.796;2022-09-03T05:00:13;13.60;1.00
5901;DHT22;2976;49.764;9.796;2022-09-03T05:02:43;13.60;99.90
5901;DHT22;2976;49.764;9.796;2022-09-03T05:05:08;13.60;1.00
5901;DHT22;2976;49.764;9.796;2022-09-03T05:07:34;13.60;1.00
5901;DHT22;2976;49.764;9.796;2022-09-03T05:10:07;13.60;1.00
5901;DHT22;2976;49.764;9.796;2022-09-03T05:12:33;13.70;1.00
5901;DHT22;2976;49.764;9.796;2022-09-03T05:15:00;13.60;1.00
5901;DHT22;2976;49.764;9.796;2022-09-03T05:17:26;13.70;1.00
5901;DHT22;2976;49.764;9.796;2022-09-03T05:19:52;13.70;1.00
5901;DHT22;2976;49.764;9.796;2022-09-03T05:22:18;13.70;1.00
5901;DHT22;2976;49.764;9.796;2022-09-03T05:24:48;13.70;1.00
5901;DHT22;2976;49.764;9.796;2022-09-03T05:27:15;13.70;1.00
5901;DHT22;2976;49.764;9.796;2022-09-03T05:29:43;13.70;1.00
5901;DHT22;2976;49.764;9.796;2022-09-03T05:32:10;13.80;1.00
5901;DHT22;2976;49.764;9.796;2022-09-03T05:34:37;13.80;1.00
5901;DHT22;2976;49.764;9.796;2022-09-03T05:37:03;13.80;1.00
5901;DHT22;2976;49.764;9.796;2022-09-03T05:39:28;13.90;99.90
5901;DHT22;2976;49.764;9.796;2022-09-03T05:41:54;14.00;99.90
5901;DHT22;2976;49.764;9.796;2022-09-03T05:44:19;14.00;99.90
5901;DHT22;2976;49.764;9.796;2022-09-03T05:46:48;14.00;68.90
5901;DHT22;2976;49.764;9.796;2022-09-03T05:49:14;14.00;54.20
5901;DHT22;2976;49.764;9.796;2022-09-03T05:51:40;14.10;1.00
5901;DHT22;2976;49.764;9.796;2022-09-03T05:54:07;14.10;1.00
5901;DHT22;2976;49.764;9.796;2022-09-03T05:56:33;14.20;1.00
5901;DHT22;2976;49.764;9.796;2022-09-03T05:59:04;14.30;1.00
5901;DHT22;2976;49.764;9.796;2022-09-03T06:01:36;14.40;1.00
5901;DHT22;2976;49.764;9.796;2022-09-03T06:04:04;14.50;99.90
5901;DHT22;2976;49.764;9.796;2022-09-03T06:06:31;14.60;99.90
5901;DHT22;2976;49.764;9.796;2022-09-03T06:08:59;14.50;99.90
5901;DHT22;2976;49.764;9.796;2022-09-03T06:11:28;14.60;99.90
5901;DHT22;2976;49.764;9.796;2022-09-03T06:13:58;14.70;99.90
5901;DHT22;2976;49.764;9.796;2022-09-03T06:16:27;14.80;99.90
5901;DHT22;2976;49.764;9.796;2022-09-03T06:18:53;14.90;14.90
5901;DHT22;2976;49.764;9.796;2022-09-03T06:21:19;15.00;1.00
5901;DHT22;2976;49.764;9.796;2022-09-03T06:23:53;15.10;1.00
5901;DHT22;2976;49.764;9.796;2022-09-03T06:26:22;15.00;1.00
5901;DHT22;2976;49.764;9.796;2022-09-03T06:28:48;15.00;1.00
5901;DHT22;2976;49.764;9.796;2022-09-03T06:31:16;15.10;1.00
5901;DHT22;2976;49.764;9.796;2022-09-03T06:33:43;15.10;1.00
5901;DHT22;2976;49.764;9.796;2022-09-03T06:36:11;15.20;1.00
5901;DHT22;2976;49.764;9.796;2022-09-03T06:38:38;15.20;1.00
5901;DHT22;2976;49.764;9.796;2022-09-03T06:41:06;15.10;1.00
5901;DHT22;2976;49.764;9.796;2022-09-03T06:43:34;15.10;1.00
5901;DHT22;2976;49.764;9.796;2022-09-03T06:46:05;15.20;1.00
5901;DHT22;2976;49.764;9.796;2022-09-03T06:48:32;15.20;1.00
5901;DHT22;2976;49.764;9.796;2022-09-03T06:51:04;15.30;1.00
5901;DHT22;2976;49.764;9.796;2022-09-03T06:53:33;15.40;1.00
5901;DHT22;2976;49.764;9.796;2022-09-03T06:56:01;15.60;1.00
5901;DHT22;2976;49.764;9.796;2022-09-03T06:58:31;15.60;1.00
5901;DHT22;2976;49.764;9.796;2022-09-03T07:01:17;15.70;99.90
5901;DHT22;2976;49.764;9.796;2022-09-03T07:03:44;15.80;99.90
5901;DHT22;2976;49.764;9.796;2022-09-03T07:06:12;15.90;99.90
5901;DHT22;2976;49.764;9.796;2022-09-03T07:08:38;16.10;99.90
5901;DHT22;2976;49.764;9.796;2022-09-03T07:11:06;16.30;99.90
5901;DHT22;2976;49.764;9.796;2022-09-03T07:13:36;16.70;99.90
5901;DHT22;2976;49.764;9.796;2022-09-03T07:16:06;16.90;99.90
5901;DHT22;2976;49.764;9.796;2022-09-03T07:18:32;17.20;99.90
5901;DHT22;2976;49.764;9.796;2022-09-03T07:21:03;17.40;90.90
5901;DHT22;2976;49.764;9.796;2022-09-03T07:23:29;17.60;53.60
5901;DHT22;2976;49.764;9.796;2022-09-03T07:26:00;17.50;69.00
5901;DHT22;2976;49.764;9.796;2022-09-03T07:28:28;17.80;54.50
5901;DHT22;2976;49.764;9.796;2022-09-03T07:30:59;18.00;27.70
5901;DHT22;2976;49.764;9.796;2022-09-03T07:33:25;18.30;7.70
5901;DHT22;2976;49.764;9.796;2022-09-03T07:35:52;18.60;1.00
5901;DHT22;2976;49.764;9.796;2022-09-03T07:38:18;18.60;1.00
5901;DHT22;2976;49.764;9.796;2022-09-03T07:40:48;18.60;1.00
5901;DHT22;2976;49.764;9.796;2022-09-03T07:43:13;18.80;1.00
5901;DHT22;2976;49.764;9.796;2022-09-03T07:45:39;18.90;1.00
5901;DHT22;2976;49.764;9.796;2022-09-03T07:48:05;19.20;1.00
5901;DHT22;2976;49.764;9.796;2022-09-03T07:50:31;19.60;1.00
5901;DHT22;2976;49.764;9.796;2022-09-03T07:53:02;20.10;1.00
5901;DHT22;2976;49.764;9.796;2022-09-03T07:55:27;20.60;1.00
5901;DHT22;2976;49.764;9.796;2022-09-03T07:57:56;20.50;1.00
5901;DHT22;2976;49.764;9.796;2022-09-03T08:00:22;20.70;1.00
5901;DHT22;2976;49.764;9.796;2022-09-03T08:02:47;20.40;1.00
5901;DHT22;2976;49.764;9.796;2022-09-03T08:05:13;20.40;1.00
5901;DHT22;2976;49.764;9.796;2022-09-03T08:07:38;20.30;1.00
5901;DHT22;2976;49.764;9.796;2022-09-03T08:10:04;20.40;1.00
5901;DHT22;2976;49.764;9.796;2022-09-03T08:12:30;20.50;1.00
5901;DHT22;2976;49.764;9.796;2022-09-03T08:14:57;20.80;1.00
5901;DHT22;2976;49.764;9.796;2022-09-03T08:17:23;20.80;1.00
5901;DHT22;2976;49.764;9.796;2022-09-03T08:19:48;21.10;1.00
5901;DHT22;2976;49.764;9.796;2022-09-03T08:22:14;21.50;1.00
5901;DHT22;2976;49.764;9.796;2022-09-03T08:24:39;21.40;1.00
5901;DHT22;2976;49.764;9.796;2022-09-03T08:27:06;21.40;1.00
5901;DHT22;2976;49.764;9.796;2022-09-03T08:29:32;20.60;1.00
5901;DHT22;2976;49.764;9.796;2022-09-03T08:31:57;20.60;1.00
5901;DHT22;2976;49.764;9.796;2022-09-03T08:34:23;20.50;1.00
5901;DHT22;2976;49.764;9.796;2022-09-03T08:36:48;20.20;1.00
5901;DHT22;2976;49.764;9.796;2022-09-03T08:39:14;20.20;1.00
5901;DHT22;2976;49.764;9.796;2022-09-03T08:44:25;20.20;1.00
5901;DHT22;2976;49.764;9.796;2022-09-03T08:52:07;20.50;1.00
5901;DHT22;2976;49.764;9.796;2022-09-03T08:54:38;20.90;1.00
5901;DHT22;2976;49.764;9.796;2022-09-03T08:57:04;21.20;1.00
5901;DHT22;2976;49.764;9.796;2022-09-03T08:59:32;21.50;1.00
5901;DHT22;2976;49.764;9.796;2022-09-03T09:02:17;21.70;1.00
5901;DHT22;2976;49.764;9.796;2022-09-03T09:04:58;22.00;1.00
5901;DHT22;2976;49.764;9.796;2022-09-03T09:07:31;22.30;1.00
5901;DHT22;2976;49.764;9.796;2022-09-03T09:10:12;22.90;1.00
5901;DHT22;2976;49.764;9.796;2022-09-03T09:18:44;24.10;1.00
5901;DHT22;2976;49.764;9.796;2022-09-03T09:21:22;24.20;1.00
5901;DHT22;2976;49.764;9.796;2022-09-03T09:23:51;23.90;1.00
5901;DHT22;2976;49.764;9.796;2022-09-03T09:26:19;23.50;1.00
5901;DHT22;2976;49.764;9.796;2022-09-03T09:28:52;23.20;1.00
5901;DHT22;2976;49.764;9.796;2022-09-03T09:31:19;22.80;1.00
5901;DHT22;2976;49.764;9.796;2022-09-03T09:33:44;22.70;1.00
5901;DHT22;2976;49.764;9.796;2022-09-03T09:36:14;22.60;1.00
5901;DHT22;2976;49.764;9.796;2022-09-03T09:38:42;22.50;1.00
5901;DHT22;2976;49.764;9.796;2022-09-03T09:41:09;22.90;1.00
5901;DHT22;2976;49.764;9.796;2022-09-03T09:43:35;22.80;1.00
5901;DHT22;2976;49.764;9.796;2022-09-03T09:46:20;22.70;1.00
5901;DHT22;2976;49.764;9.796;2022-09-03T09:48:47;22.80;1.00
5901;DHT22;2976;49.764;9.796;2022-09-03T09:54:00;23.40;1.00
5901;DHT22;2976;49.764;9.796;2022-09-03T09:56:25;23.90;1.00
5901;DHT22;2976;49.764;9.796;2022-09-03T09:59:08;24.20;1.00
5901;DHT22;2976;49.764;9.796;2022-09-03T10:01:37;24.10;1.00
5901;DHT22;2976;49.764;9.796;2022-09-03T10:04:28;23.70;1.00
5901;DHT22;2976;49.764;9.796;2022-09-03T10:12:27;24.60;1.00
5901;DHT22;2976;49.764;9.796;2022-09-03T10:15:54;25.10;1.00
5901;DHT22;2976;49.764;9.796;2022-09-03T10:21:02;25.20;1.00
5901;DHT22;2976;49.764;9.796;2022-09-03T10:23:34;25.20;1.00
5901;DHT22;2976;49.764;9.796;2022-09-03T10:26:03;24.90;1.00
5901;DHT22;2976;49.764;9.796;2022-09-03T10:28:34;24.90;1.00
5901;DHT22;2976;49.764;9.796;2022-09-03T10:33:47;24.20;1.00
5901;DHT22;2976;49.764;9.796;2022-09-03T10:36:39;24.10;1.00
5901;DHT22;2976;49.764;9.796;2022-09-03T10:44:59;25.60;1.00
5901;DHT22;2976;49.764;9.796;2022-09-03T10:48:08;25.50;1.00
5901;DHT22;2976;49.764;9.796;2022-09-03T10:56:06;24.70;1.00
5901;DHT22;2976;49.764;9.796;2022-09-03T10:59:04;25.10;1.00
5901;DHT22;2976;49.764;9.796;2022-09-03T11:04:52;24.70;1.00
5901;DHT22;2976;49.764;9.796;2022-09-03T11:07:25;24.50;1.00
5901;DHT22;2976;49.764;9.796;2022-09-03T11:12:23;24.10;1.00
5901;DHT22;2976;49.764;9.796;2022-09-03T11:14:55;24.00;1.00
5901;DHT22;2976;49.764;9.796;2022-09-03T11:17:39;23.50;1.00
5901;DHT22;2976;49.764;9.796;2022-09-03T11:20:20;23.40;1.00
5901;DHT22;2976;49.764;9.796;2022-09-03T11:22:48;23.40;1.00
5901;DHT22;2976;49.764;9.796;2022-09-03T11:25:17;23.50;1.00
5901;DHT22;2976;49.764;9.796;2022-09-03T11:30:38;24.30;1.00
5901;DHT22;2976;49.764;9.796;2022-09-03T11:33:07;24.90;1.00
5901;DHT22;2976;49.764;9.796;2022-09-03T11:38:02;25.70;1.00
5901;DHT22;2976;49.764;9.796;2022-09-03T11:40:36;26.10;1.00
5901;DHT22;2976;49.764;9.796;2022-09-03T11:46:51;25.50;1.00
5901;DHT22;2976;49.764;9.796;2022-09-03T11:49:07;24.70;1.00
5901;DHT22;2976;49.764;9.796;2022-09-03T11:51:34;23.70;1.00
5901;DHT22;2976;49.764;9.796;2022-09-03T11:56:36;22.20;1.00
5901;DHT22;2976;49.764;9.796;2022-09-03T11:59:17;21.70;33.70
5901;DHT22;2976;49.764;9.796;2022-09-03T12:01:55;21.40;99.90
5901;DHT22;2976;49.764;9.796;2022-09-03T12:04:24;21.30;99.90
5901;DHT22;2976;49.764;9.796;2022-09-03T12:07:40;21.30;99.90
5901;DHT22;2976;49.764;9.796;2022-09-03T12:18:07;20.80;99.90
5901;DHT22;2976;49.764;9.796;2022-09-03T12:21:07;20.80;99.90
5901;DHT22;2976;49.764;9.796;2022-09-03T12:23:48;20.70;99.90
5901;DHT22;2976;49.764;9.796;2022-09-03T12:26:17;20.60;99.90
5901;DHT22;2976;49.764;9.796;2022-09-03T12:28:57;20.60;99.90
5901;DHT22;2976;49.764;9.796;2022-09-03T12:31:28;20.70;99.90
5901;DHT22;2976;49.764;9.796;2022-09-03T12:33:57;20.80;99.90
5901;DHT22;2976;49.764;9.796;2022-09-03T12:36:37;20.90;99.90
5901;DHT22;2976;49.764;9.796;2022-09-03T12:39:26;20.90;99.90
5901;DHT22;2976;49.764;9.796;2022-09-03T12:42:03;21.00;99.90
5901;DHT22;2976;49.764;9.796;2022-09-03T12:47:17;21.50;99.90
5901;DHT22;2976;49.764;9.796;2022-09-03T12:49:45;21.70;99.90
5901;DHT22;2976;49.764;9.796;2022-09-03T12:52:27;21.90;97.00
5901;DHT22;2976;49.764;9.796;2022-09-03T12:55:02;22.10;49.60
5901;DHT22;2976;49.764;9.796;2022-09-03T13:00:07;22.40;82.40
5901;DHT22;2976;49.764;9.796;2022-09-03T13:05:17;22.90;1.00
5901;DHT22;2976;49.764;9.796;2022-09-03T13:07:48;23.00;1.00
5901;DHT22;2976;49.764;9.796;2022-09-03T13:10:27;23.00;1.00
5901;DHT22;2976;49.764;9.796;2022-09-03T13:13:02;22.80;1.00
5901;DHT22;2976;49.764;9.796;2022-09-03T13:15:31;22.50;1.00
5901;DHT22;2976;49.764;9.796;2022-09-03T13:18:18;22.60;1.00
5901;DHT22;2976;49.764;9.796;2022-09-03T13:20:49;22.50;1.00
5901;DHT22;2976;49.764;9.796;2022-09-03T13:23:42;22.40;1.00
5901;DHT22;2976;49.764;9.796;2022-09-03T13:31:51;22.40;1.00
5901;DHT22;2976;49.764;9.796;2022-09-03T13:34:41;22.60;1.00
5901;DHT22;2976;49.764;9.796;2022-09-03T13:37:34;22.50;1.00
5901;DHT22;2976;49.764;9.796;2022-09-03T13:40:26;22.60;1.00
5901;DHT22;2976;49.764;9.796;2022-09-03T13:43:25;22.80;1.00
5901;DHT22;2976;49.764;9.796;2022-09-03T13:46:02;22.90;1.00
5901;DHT22;2976;49.764;9.796;2022-09-03T13:48:38;22.90;1.00
5901;DHT22;2976;49.764;9.796;2022-09-03T13:51:29;23.00;1.00
5901;DHT22;2976;49.764;9.796;2022-09-03T13:54:15;23.10;1.00
5901;DHT22;2976;49.764;9.796;2022-09-03T13:57:21;23.20;1.00
5901;DHT22;2976;49.764;9.796;2022-09-03T14:00:05;23.20;1.00
5901;DHT22;2976;49.764;9.796;2022-09-03T14:13:31;23.70;1.00
5901;DHT22;2976;49.764;9.796;2022-09-03T14:16:19;23.90;1.00
5901;DHT22;2976;49.764;9.796;2022-09-03T14:19:04;24.10;1.00
5901;DHT22;2976;49.764;9.796;2022-09-03T14:21:58;24.10;1.00
5901;DHT22;2976;49.764;9.796;2022-09-03T14:24:33;24.20;1.00
5901;DHT22;2976;49.764;9.796;2022-09-03T14:27:02;24.10;1.00
5901;DHT22;2976;49.764;9.796;2022-09-03T14:29:31;24.30;1.00
5901;DHT22;2976;49.764;9.796;2022-09-03T14:37:38;24.30;1.00
5901;DHT22;2976;49.764;9.796;2022-09-03T14:53:41;24.00;1.00
5901;DHT22;2976;49.764;9.796;2022-09-03T14:56:43;24.00;1.00
5901;DHT22;2976;49.764;9.796;2022-09-03T15:05:15;24.20;1.00
5901;DHT22;2976;49.764;9.796;2022-09-03T15:07:56;24.10;1.00
5901;DHT22;2976;49.764;9.796;2022-09-03T15:11:09;23.90;1.00
5901;DHT22;2976;49.764;9.796;2022-09-03T15:13:18;23.70;1.00
5901;DHT22;2976;49.764;9.796;2022-09-03T15:21:22;23.70;1.00
5901;DHT22;2976;49.764;9.796;2022-09-03T15:34:42;23.40;1.00
5901;DHT22;2976;49.764;9.796;2022-09-03T15:37:27;23.40;1.00
5901;DHT22;2976;49.764;9.796;2022-09-03T15:40:00;23.50;1.00
5901;DHT22;2976;49.764;9.796;2022-09-03T15:42:28;23.50;1.00
5901;DHT22;2976;49.764;9.796;2022-09-03T15:45:02;23.50;1.00
5901;DHT22;2976;49.764;9.796;2022-09-03T15:53:05;23.30;1.00
5901;DHT22;2976;49.764;9.796;2022-09-03T15:55:41;23.30;1.00
5901;DHT22;2976;49.764;9.796;2022-09-03T15:58:28;23.30;1.00
5901;DHT22;2976;49.764;9.796;2022-09-03T16:01:18;23.20;1.00
5901;DHT22;2976;49.764;9.796;2022-09-03T16:03:55;23.30;1.00
5901;DHT22;2976;49.764;9.796;2022-09-03T16:12:18;23.20;1.00
5901;DHT22;2976;49.764;9.796;2022-09-03T16:15:11;23.20;1.00
5901;DHT22;2976;49.764;9.796;2022-09-03T16:23:37;23.60;1.00
5901;DHT22;2976;49.764;9.796;2022-09-03T16:26:13;23.50;1.00
5901;DHT22;2976;49.764;9.796;2022-09-03T16:28:51;23.40;1.00
5901;DHT22;2976;49.764;9.796;2022-09-03T16:43:02;22.80;1.00
5901;DHT22;2976;49.764;9.796;2022-09-03T16:57:18;22.40;1.00
5901;DHT22;2976;49.764;9.796;2022-09-03T17:02:40;22.30;1.00
5901;DHT22;2976;49.764;9.796;2022-09-03T17:05:40;22.20;4.20
5901;DHT22;2976;49.764;9.796;2022-09-03T17:15:15;22.00;26.40
5901;DHT22;2976;49.764;9.796;2022-09-03T17:25:27;21.90;58.10
5901;DHT22;2976;49.764;9.796;2022-09-03T17:31:05;21.70;85.80
5901;DHT22;2976;49.764;9.796;2022-09-03T17:36:24;21.20;99.90
5901;DHT22;2976;49.764;9.796;2022-09-03T17:47:31;20.50;99.90
5901;DHT22;2976;49.764;9.796;2022-09-03T17:49:59;20.40;43.80
5901;DHT22;2976;49.764;9.796;2022-09-03T17:54:59;20.30;1.00
5901;DHT22;2976;49.764;9.796;2022-09-03T17:57:37;20.00;1.00
5901;DHT22;2976;49.764;9.796;2022-09-03T18:00:09;19.80;1.00
5901;DHT22;2976;49.764;9.796;2022-09-03T18:02:43;19.50;1.00
5901;DHT22;2976;49.764;9.796;2022-09-03T18:05:31;19.30;1.00
5901;DHT22;2976;49.764;9.796;2022-09-03T18:08:04;19.00;19.70
5901;DHT22;2976;49.764;9.796;2022-09-03T18:16:41;18.60;36.20
5901;DHT22;2976;49.764;9.796;2022-09-03T18:21:58;18.50;82.60
5901;DHT22;2976;49.764;9.796;2022-09-03T18:24:52;18.50;95.50
5901;DHT22;2976;49.764;9.796;2022-09-03T18:27:42;18.30;98.20
5901;DHT22;2976;49.764;9.796;2022-09-03T18:30:27;18.20;99.90
5901;DHT22;2976;49.764;9.796;2022-09-03T18:33:11;18.10;99.90
5901;DHT22;2976;49.764;9.796;2022-09-03T18:35:57;18.00;99.90
5901;DHT22;2976;49.764;9.796;2022-09-03T18:38:42;17.90;99.90
5901;DHT22;2976;49.764;9.796;2022-09-03T18:50:46;17.70;99.90
5901;DHT22;2976;49.764;9.796;2022-09-03T18:56:48;17.50;99.90
5901;DHT22;2976;49.764;9.796;2022-09-03T18:59:48;17.40;99.90
5901;DHT22;2976;49.764;9.796;2022-09-03T19:03:01;17.30;99.90
5901;DHT22;2976;49.764;9.796;2022-09-03T19:08:40;17.10;99.90
5901;DHT22;2976;49.764;9.796;2022-09-03T19:11:36;17.00;99.90
5901;DHT22;2976;49.764;9.796;2022-09-03T19:14:33;17.00;99.90
5901;DHT22;2976;49.764;9.796;2022-09-03T19:17:53;17.00;99.90
5901;DHT22;2976;49.764;9.796;2022-09-03T19:20:35;17.00;99.90
5901;DHT22;2976;49.764;9.796;2022-09-03T19:23:19;16.90;99.90
5901;DHT22;2976;49.764;9.796;2022-09-03T19:26:20;16.80;99.90
5901;DHT22;2976;49.764;9.796;2022-09-03T19:29:31;16.80;99.90
5901;DHT22;2976;49.764;9.796;2022-09-03T19:32:22;16.80;99.90
5901;DHT22;2976;49.764;9.796;2022-09-03T19:35:20;16.70;99.90
5901;DHT22;2976;49.764;9.796;2022-09-03T19:38:17;16.70;99.90
5901;DHT22;2976;49.764;9.796;2022-09-03T19:41:18;16.70;99.90
5901;DHT22;2976;49.764;9.796;2022-09-03T19:44:35;16.60;99.90
5901;DHT22;2976;49.764;9.796;2022-09-03T19:48:24;16.60;99.90
5901;DHT22;2976;49.764;9.796;2022-09-03T19:53:47;16.60;99.90
5901;DHT22;2976;49.764;9.796;2022-09-03T19:56:32;16.60;99.90
5901;DHT22;2976;49.764;9.796;2022-09-03T19:59:19;16.60;99.90
5901;DHT22;2976;49.764;9.796;2022-09-03T20:02:04;16.50;99.90
5901;DHT22;2976;49.764;9.796;2022-09-03T20:04:58;16.50;99.90
5901;DHT22;2976;49.764;9.796;2022-09-03T20:07:44;16.40;99.90
5901;DHT22;2976;49.764;9.796;2022-09-03T20:10:31;16.40;99.90
5901;DHT22;2976;49.764;9.796;2022-09-03T20:21:36;16.10;99.90
5901;DHT22;2976;49.764;9.796;2022-09-03T20:24:20;16.00;99.90
5901;DHT22;2976;49.764;9.796;2022-09-03T20:27:15;15.90;99.90
5901;DHT22;2976;49.764;9.796;2022-09-03T20:32:45;15.80;99.90
5901;DHT22;2976;49.764;9.796;2022-09-03T20:41:06;15.70;99.90
5901;DHT22;2976;49.764;9.796;2022-09-03T20:51:24;15.60;99.90
5901;DHT22;2976;49.764;9.796;2022-09-03T20:59:29;15.50;99.90
5901;DHT22;2976;49.764;9.796;2022-09-03T21:13:05;15.00;99.90
5901;DHT22;2976;49.764;9.796;2022-09-03T21:18:13;14.90;99.90
5901;DHT22;2976;49.764;9.796;2022-09-03T21:23:53;14.80;99.90
5901;DHT22;2976;49.764;9.796;2022-09-03T21:26:25;14.80;99.90
5901;DHT22;2976;49.764;9.796;2022-09-03T21:29:12;14.80;99.90
5901;DHT22;2976;49.764;9.796;2022-09-03T21:31:49;14.80;99.90
5901;DHT22;2976;49.764;9.796;2022-09-03T21:34:40;14.80;99.90
5901;DHT22;2976;49.764;9.796;2022-09-03T21:37:05;14.80;99.90
5901;DHT22;2976;49.764;9.796;2022-09-03T21:39:52;14.90;99.90
5901;DHT22;2976;49.764;9.796;2022-09-03T21:42:49;14.80;99.90
5901;DHT22;2976;49.764;9.796;2022-09-03T21:45:40;14.80;99.90
5901;DHT22;2976;49.764;9.796;2022-09-03T21:48:16;14.90;99.90
5901;DHT22;2976;49.764;9.796;2022-09-03T21:50:55;14.90;99.90
5901;DHT22;2976;49.764;9.796;2022-09-03T21:53:47;14.90;99.90
5901;DHT22;2976;49.764;9.796;2022-09-03T22:02:06;15.00;99.90
5901;DHT22;2976;49.764;9.796;2022-09-03T22:04:34;15.00;99.90
5901;DHT22;2976;49.764;9.796;2022-09-03T22:12:15;15.10;99.90
5901;DHT22;2976;49.764;9.796;2022-09-03T22:14:45;15.10;99.90
5901;DHT22;2976;49.764;9.796;2022-09-03T22:17:34;15.00;99.90
5901;DHT22;2976;49.764;9.796;2022-09-03T22:20:04;15.00;99.90
5901;DHT22;2976;49.764;9.796;2022-09-03T22:25:47;14.60;99.90
5901;DHT22;2976;49.764;9.796;2022-09-03T22:28:31;14.50;99.90
5901;DHT22;2976;49.764;9.796;2022-09-03T22:31:09;14.40;99.90
5901;DHT22;2976;49.764;9.796;2022-09-03T22:36:12;14.40;99.90